Лутовиново

СКИДКИ НА СМАРТФОНЫ!

Карта отелей и гостиниц, располагающихся рядом с аэропортом Лутовиново :

Лутовиново
Волоконовка
Белгородская область 50° 33' 59.112" N, 37° 57' 1.836" E
Код аэродрома ИКАО
ZF5R
Код аэродрома RU
ЗФ5Р
Координаты
N50.56642° E037.95051°
Превышение над уровнем моря
Основная полоса
11/29
Курс магнитный
109,3/289,3
Длина основной ВПП
395
Ширина основной ВПП
21
Покрытие основной ВПП
Твёрдое
Освещение ВПП
Нет
Тип: 
Аэродром
Класс аэродрома: 
Принадлежность: 
ГА
Статус: 
Недействующий
Сайт: 
E-mail аэродрома: 
Страна: 
Россия
Регион: 
Белгородская область
Город: 
Волоконовка
Дополнительная информация: 
Застроенная площадка АХР.

Скидки на навигаторы!

Найти трансфер

С помощью этой формы Вы можете найти трансфер из аэропорта Лутовиново в город, аэропорт или вокзал:

Погода в аэропортах:

Авиационная погода в Могилёве

Регион: 
Погода METAR: 
UMOO 071200Z 12008G11MPS 1100 R13/1100 SN DRSN OVC013 M06/M08 Q1012 TEMPO BKN003
Время наблюдения
2022-12-07T12:00:00Z
Температура C
-6.0
Точка росы
-8.0
Направление ветра
120
Скорость ветра (узлы)
16
Метео видимость
0.68
Облачность
OVC
Нижняя граница облачности (футы)
1300
Явления погоды
DRSN SN
Условия полета
LIFR
Аэропорт подробнее: 
OVC – сплошная облачность;
DRSN – снежный позёмок;

Авиационная погода в Пулково

Регион: 
Погода METAR: 
ULLI 072100Z 13005MPS 7000 -SHSN BKN017CB OVC033 M05/M09 Q1007 R10R/450545 NOSIG
Время наблюдения
2022-12-07T21:00:00Z
Температура C
-5.0
Точка росы
-9.0
Направление ветра
130
Скорость ветра (узлы)
10
Метео видимость
4.35
Облачность
BKN
OVC
Нижняя граница облачности (футы)
1700
3300
Явления погоды
-SHSN
Условия полета
MVFR
Аэропорт подробнее: 
BKN – значительная (рассеянная, разорванная) облачность; OVC – сплошная облачность;
-SHSN - слабый ливневой снег;

Авиационная погода в Йоэнсуу

Регион: 
Погода METAR: 
EFJO 072050Z AUTO 10009KT 9999 -SN FEW009 BKN031 M05/M07 Q1006
Время наблюдения
2022-12-07T20:50:00Z
Температура C
-5.0
Точка росы
-7.0
Направление ветра
100
Скорость ветра (узлы)
9
Метео видимость
6.21
Облачность
FEW
BKN
Нижняя граница облачности (футы)
900
3100
Явления погоды
-SN
Условия полета
VFR
FEW – незначительная облачность; BKN – значительная (рассеянная, разорванная) облачность;
-SN – слабый снег;

Авиационная погода в Павлодаре

Регион: 
Погода METAR: 
UASP 070500Z VRB01MPS 3100 BR BKN007 M27/M30 Q1041 TEMPO 0300 FZFG BKN002 RMK OBST OBSC QFE770/1027
Время наблюдения
2022-12-07T05:00:00Z
Температура C
-27.0
Точка росы
-30.0
Направление ветра
0
Скорость ветра (узлы)
2
Метео видимость
1.93
Облачность
BKN
Нижняя граница облачности (футы)
700
Явления погоды
BR
Условия полета
IFR
Аэропорт подробнее: 
BKN – значительная (рассеянная, разорванная) облачность;
BR – дымка (видимость от 1 до 9 км);